Time;durP1;ratioP1;P1;durP2;ratioP2;P2;SDS_P1;SDS_P2;PMS_P1;PMS_P2;Temp;Humidity;BMP_temperature;BMP_pressure;BME280_temperature;BME280_humidity;BME280_pressure;Samples;Min_cycle;Max_cycle;Signal;HPM_P1;HPM_P2
2024/02/07 00:01:06;;;;;;;;;12.50;10.00;;;;;12.19;71.31;101304.59;2026754;27;2778388;-79
2024/02/07 00:02:17;;;;;;;;;13.00;9.50;;;;;12.21;71.51;101303.63;2024326;27;2786054;-79
2024/02/07 00:03:29;;;;;;;;;15.00;10.67;;;;;12.21;71.35;101302.75;2060333;28;2779390;-79
2024/02/07 00:04:40;;;;;;;;;14.00;12.50;;;;;12.23;71.55;101300.94;2016576;27;2786718;-79
2024/02/07 00:05:54;;;;;;;;;12.75;9.75;;;;;12.23;71.24;101301.81;2063637;27;1833614;-79
2024/02/07 00:07:04;;;;;;;;;13.00;10.00;;;;;12.25;71.37;101296.47;2026154;27;2774190;-79
2024/02/07 00:08:15;;;;;;;;;20.00;12.50;;;;;12.24;71.52;101294.78;2021397;27;2811748;-79
2024/02/07 00:09:26;;;;;;;;;9.00;9.00;;;;;12.24;71.62;101286.88;2010139;27;2740890;-79
2024/02/07 00:10:37;;;;;;;;;13.75;13.25;;;;;12.25;71.54;101288.56;2059093;27;1816976;-79
2024/02/07 00:11:48;;;;;;;;;14.50;12.50;;;;;12.24;71.53;101290.38;2014806;28;1835758;-79
2024/02/07 00:12:59;;;;;;;;;15.00;12.50;;;;;12.27;71.41;101299.97;2039746;28;2785672;-79
2024/02/07 00:14:10;;;;;;;;;15.00;11.00;;;;;12.26;71.42;101288.53;2050839;27;1833688;-79
2024/02/07 00:15:21;;;;;;;;;11.00;9.50;;;;;12.27;71.65;101287.63;2000481;28;2772095;-79
2024/02/07 00:16:32;;;;;;;;;15.00;10.50;;;;;12.27;71.61;101289.41;2029466;28;1825326;-79
2024/02/07 00:17:42;;;;;;;;;14.50;11.50;;;;;12.28;71.45;101285.84;2000772;27;2794005;-79
2024/02/07 00:18:53;;;;;;;;;12.00;12.00;;;;;12.27;71.49;101290.25;2036413;28;2786754;-79
2024/02/07 00:20:05;;;;;;;;;13.50;12.00;;;;;12.29;71.94;101282.31;2025151;28;2792018;-79
2024/02/07 00:21:15;;;;;;;;;12.00;8.00;;;;;12.30;71.42;101272.63;2022079;28;2766958;-79
2024/02/07 00:22:26;;;;;;;;;12.50;10.00;;;;;12.30;71.59;101281.38;2059042;27;1831609;-79
2024/02/07 00:23:37;;;;;;;;;17.00;13.00;;;;;12.31;71.44;101279.63;2007314;27;2817993;-79
2024/02/07 00:24:48;;;;;;;;;14.00;13.00;;;;;12.32;71.64;101284.84;2025313;27;2795007;-79
2024/02/07 00:26:00;;;;;;;;;14.60;11.20;;;;;12.31;71.69;101285.75;2039174;27;1831555;-79
2024/02/07 00:27:10;;;;;;;;;12.50;12.00;;;;;12.31;71.34;101275.22;2032107;27;2784681;-79
2024/02/07 00:28:21;;;;;;;;;15.50;12.00;;;;;12.32;71.61;101279.56;2043935;27;2798172;-79
2024/02/07 00:29:32;;;;;;;;;17.50;12.00;;;;;12.32;71.71;101274.28;2017888;28;2797106;-79
2024/02/07 00:30:43;;;;;;;;;12.50;8.00;;;;;12.31;71.71;101272.59;2040894;28;2761715;-79
2024/02/07 00:31:54;;;;;;;;;12.75;10.50;;;;;12.32;71.71;101276.91;2054203;28;1821117;-79
2024/02/07 00:33:06;;;;;;;;;16.00;12.00;;;;;12.32;71.32;101269.00;2013680;28;1840907;-79
2024/02/07 00:34:16;;;;;;;;;10.00;7.50;;;;;12.32;71.47;101270.81;2022197;28;2757521;-79
2024/02/07 00:35:28;;;;;;;;;14.33;11.00;;;;;12.33;71.42;101267.25;2057515;27;1842997;-79
2024/02/07 00:36:38;;;;;;;;;12.50;8.00;;;;;12.33;71.73;101259.34;2009020;27;2759643;-79
2024/02/07 00:37:49;;;;;;;;;11.00;9.50;;;;;12.33;71.48;101257.56;2048717;27;2762725;-79
2024/02/07 00:39:00;;;;;;;;;13.50;10.00;;;;;12.34;71.62;101258.44;2042926;28;2783605;-79
2024/02/07 00:40:12;;;;;;;;;9.00;8.50;;;;;12.34;71.51;101248.78;2039295;28;2742297;-79
2024/02/07 00:41:23;;;;;;;;;13.50;12.00;;;;;12.34;71.63;101255.81;2022432;28;2791934;-79
2024/02/07 00:42:34;;;;;;;;;13.00;9.50;;;;;12.35;71.46;101250.47;2000525;28;2785715;-79
2024/02/07 00:43:46;;;;;;;;;13.80;12.00;;;;;12.35;71.77;101245.19;2047059;28;1827440;-79
2024/02/07 00:44:56;;;;;;;;;9.00;8.50;;;;;12.35;71.60;101250.47;2017805;28;2478365;-79
2024/02/07 00:46:07;;;;;;;;;16.50;13.50;;;;;12.36;71.64;101241.66;2042532;27;2797551;-78
2024/02/07 00:47:18;;;;;;;;;15.50;11.00;;;;;12.35;71.69;101244.34;2019017;28;2791898;-79
2024/02/07 00:48:29;;;;;;;;;12.50;8.50;;;;;12.34;71.62;101232.97;2024658;27;2760680;-79
2024/02/07 00:49:41;;;;;;;;;9.00;9.00;;;;;12.34;71.56;101240.84;2048227;27;2730438;-79
2024/02/07 00:50:54;;;;;;;;;13.17;10.00;;;;;12.34;71.67;101235.59;2056627;28;1818099;-79
2024/02/07 00:52:05;;;;;;;;;9.67;8.67;;;;;12.35;71.30;101232.03;2001755;28;3466934;-79
2024/02/07 00:53:17;;;;;;;;;12.00;11.17;;;;;12.35;71.55;101237.28;2053496;28;1821134;-79
2024/02/07 00:54:28;;;;;;;;;14.50;10.00;;;;;12.35;71.92;101233.78;2022718;27;2784693;-79
2024/02/07 00:55:39;;;;;;;;;12.00;10.00;;;;;12.35;71.60;101239.06;2025457;27;2775594;-78
2024/02/07 00:56:50;;;;;;;;;13.00;9.50;;;;;12.35;71.76;101234.66;2032635;27;2771124;-79
2024/02/07 00:58:00;;;;;;;;;14.50;13.00;;;;;12.35;71.66;101226.75;2034503;27;2800259;-79
2024/02/07 00:59:12;;;;;;;;;13.00;11.40;;;;;12.35;71.67;101223.25;2048062;28;1813899;-79
2024/02/07 01:00:24;;;;;;;;;13.50;10.00;;;;;12.35;71.68;101223.25;2024288;28;2785695;-79
2024/02/07 01:01:34;;;;;;;;;12.00;9.50;;;;;12.34;71.56;101222.41;2024617;28;2776304;-79
2024/02/07 01:02:45;;;;;;;;;12.50;10.00;;;;;12.34;71.67;101222.41;2014833;28;2774201;-79
2024/02/07 01:03:56;;;;;;;;;11.00;9.50;;;;;12.34;71.90;101217.13;2018689;28;2763853;-78
2024/02/07 01:05:08;;;;;;;;;8.00;8.00;;;;;12.34;71.65;101222.41;2043362;28;2735674;-78
2024/02/07 01:06:20;;;;;;;;;11.50;9.00;;;;;12.34;71.75;101217.13;2040025;27;1831559;-79
2024/02/07 01:07:30;;;;;;;;;7.00;7.00;;;;;12.33;71.80;101220.66;2032474;27;2748268;-78
2024/02/07 01:08:42;;;;;;;;;10.25;9.75;;;;;12.33;71.87;101209.25;2057227;27;1814916;-79
2024/02/07 01:09:53;;;;;;;;;11.00;9.25;;;;;12.32;71.83;101211.03;2018028;28;1839904;-79
2024/02/07 01:11:04;;;;;;;;;12.00;10.00;;;;;12.33;71.84;101210.13;2024063;27;2775272;-79
2024/02/07 01:12:17;;;;;;;;;16.80;12.20;;;;;12.34;71.78;101216.28;2054478;27;2810651;-78
2024/02/07 01:13:28;;;;;;;;;14.00;12.00;;;;;12.34;72.20;101208.38;2010938;28;2785739;-79
2024/02/07 01:14:38;;;;;;;;;11.00;7.50;;;;;12.33;71.97;101209.25;2034444;28;2759615;-79
2024/02/07 01:15:50;;;;;;;;;8.50;8.00;;;;;12.33;71.81;101202.22;2041644;28;2733598;-78
2024/02/07 01:17:00;;;;;;;;;7.33;7.33;;;;;12.33;72.06;101204.00;2036231;27;2740930;-78
2024/02/07 01:18:11;;;;;;;;;8.50;8.00;;;;;12.33;71.96;101207.50;2042504;27;2746162;-79
2024/02/07 01:19:24;;;;;;;;;15.00;10.00;;;;;12.33;71.87;101198.72;2039171;27;2798223;-78
2024/02/07 01:20:34;;;;;;;;;12.00;9.00;;;;;12.33;71.87;101199.59;2019346;28;2765948;-79
2024/02/07 01:21:45;;;;;;;;;7.50;7.50;;;;;12.34;71.98;101205.72;2040833;27;2740902;-79
2024/02/07 01:22:56;;;;;;;;;14.00;10.50;;;;;12.32;71.74;101189.94;2049288;27;2787750;-79
2024/02/07 01:24:08;;;;;;;;;9.80;9.20;;;;;12.34;71.95;101197.81;2063819;27;1819073;-79
2024/02/07 01:25:18;;;;;;;;;10.00;8.00;;;;;12.35;72.05;101194.25;2032896;27;2772147;-78
2024/02/07 01:26:35;;;;;;;;;13.00;9.50;;;;;12.36;72.04;101188.09;2064429;27;1827385;-79
2024/02/07 01:27:46;;;;;;;;;8.50;8.00;;;;;12.34;71.75;101188.16;2012698;27;2729452;-79
2024/02/07 01:28:56;;;;;;;;;12.67;7.33;;;;;12.36;72.15;101188.09;2051100;27;3488813;-79
2024/02/07 01:30:07;;;;;;;;;10.00;7.33;;;;;12.36;71.91;101185.44;2041151;28;3477350;-79
2024/02/07 01:31:21;;;;;;;;;9.00;8.50;;;;;12.37;71.92;101184.53;2037239;27;2760688;-78
2024/02/07 01:32:34;;;;;;;;;1.17;1.00;;;;;12.37;72.01;101188.00;2054436;28;2729440;-79
2024/02/07 01:33:45;;;;;;;;;9.67;9.00;;;;;12.37;71.89;101182.75;2026506;28;2742028;-79
2024/02/07 01:34:56;;;;;;;;;15.00;8.00;;;;;12.37;72.04;101174.00;2040761;28;2771118;-79
2024/02/07 01:36:07;;;;;;;;;19.75;11.25;;;;;12.36;71.89;101172.25;2051984;27;1826310;-79
2024/02/07 01:37:17;;;;;;;;;9.00;8.50;;;;;12.38;72.06;101181.84;2010379;27;2752331;-79
2024/02/07 01:38:29;;;;;;;;;10.20;9.20;;;;;12.38;72.39;101171.31;2063332;27;1821135;-79
2024/02/07 01:39:40;;;;;;;;;9.50;9.50;;;;;12.40;72.27;101179.16;2026581;27;2759643;-79
2024/02/07 01:40:51;;;;;;;;;11.00;10.00;;;;;12.39;71.94;101177.44;2032119;27;2779499;-79
2024/02/07 01:42:02;;;;;;;;;12.50;10.00;;;;;12.42;72.02;101179.13;2035790;28;2781541;-79
2024/02/07 01:43:13;;;;;;;;;9.00;8.00;;;;;12.42;72.10;101176.47;2025045;28;2738811;-79
2024/02/07 01:44:25;;;;;;;;;9.50;7.50;;;;;12.42;72.09;101177.31;2043517;27;2748174;-79
2024/02/07 01:45:36;;;;;;;;;12.33;11.67;;;;;12.42;71.74;101172.03;2024376;28;3505821;-79
2024/02/07 01:46:47;;;;;;;;;8.00;7.00;;;;;12.45;71.88;101165.81;2032290;28;3444004;-79
2024/02/07 01:47:58;;;;;;;;;10.00;7.50;;;;;12.45;72.07;101165.81;2029858;28;2755497;-79
2024/02/07 01:49:10;;;;;;;;;13.50;9.25;;;;;12.45;72.01;101155.25;2042297;27;1848293;-78
2024/02/07 01:50:21;;;;;;;;;12.00;8.00;;;;;12.46;72.16;101162.28;2022916;27;2758618;-79
2024/02/07 01:51:31;;;;;;;;;7.67;6.00;;;;;12.46;71.96;101154.34;2008279;28;3462136;-79
2024/02/07 01:52:45;;;;;;;;;8.00;4.00;;;;;12.46;72.01;101146.44;2050814;27;2753390;-78
2024/02/07 01:53:55;;;;;;;;;13.00;12.00;;;;;12.47;72.00;101148.19;2006156;27;2774234;-79
2024/02/07 01:55:07;;;;;;;;;8.50;8.00;;;;;12.48;71.82;101144.63;2038338;28;2754439;-78
2024/02/07 01:56:17;;;;;;;;;12.33;9.67;;;;;12.47;71.98;101140.28;2024501;28;3493985;-79
2024/02/07 01:57:29;;;;;;;;;9.00;9.00;;;;;12.46;71.96;101141.19;2025869;27;2737782;-79
2024/02/07 01:58:40;;;;;;;;;16.00;10.00;;;;;12.47;72.00;101145.56;2042749;27;2801412;-79
2024/02/07 01:59:52;;;;;;;;;10.00;9.80;;;;;12.48;71.99;101144.63;2065061;27;1819148;-79
2024/02/07 02:01:03;;;;;;;;;10.33;9.00;;;;;12.46;71.84;101141.19;2002369;28;3477322;-79
2024/02/07 02:02:13;;;;;;;;;10.33;9.00;;;;;12.45;71.88;101131.53;2026711;27;3476285;-79
2024/02/07 02:03:25;;;;;;;;;10.75;8.50;;;;;12.46;71.93;101141.19;2053787;28;1835690;-79
2024/02/07 02:04:36;;;;;;;;;15.00;9.00;;;;;12.47;71.75;101142.91;2017143;27;2785692;-79
2024/02/07 02:05:47;;;;;;;;;10.00;9.00;;;;;12.47;72.15;101138.47;2041729;27;2758638;-79
2024/02/07 02:06:58;;;;;;;;;10.33;9.00;;;;;12.47;72.08;101146.38;2064137;27;1824383;-79
2024/02/07 02:08:10;;;;;;;;;16.00;10.00;;;;;12.48;71.99;101140.22;2002353;27;2792960;-79
2024/02/07 02:09:20;;;;;;;;;8.00;8.00;;;;;12.48;71.83;101153.41;2007769;27;2735646;-79
2024/02/07 02:10:32;;;;;;;;;8.67;8.00;;;;;12.46;72.00;101149.97;2041864;28;3436726;-79
2024/02/07 02:11:48;;;;;;;;;10.25;10.25;;;;;12.47;72.11;101145.56;2047850;28;1837862;-79
2024/02/07 02:13:00;;;;;;;;;10.00;6.00;;;;;12.47;72.00;101149.03;2031234;28;1821103;-79
2024/02/07 02:14:11;;;;;;;;;12.00;9.33;;;;;12.47;71.83;101145.56;2023741;28;1816926;-79
2024/02/07 02:15:23;;;;;;;;;11.25;8.00;;;;;12.46;72.17;101138.53;2023439;27;1819048;-79
2024/02/07 02:16:35;;;;;;;;;10.33;7.67;;;;;12.46;72.18;101146.44;2032181;27;2753972;-79
2024/02/07 02:17:45;;;;;;;;;10.00;8.67;;;;;12.45;71.95;101131.53;2025642;27;3470059;-79
2024/02/07 02:18:58;;;;;;;;;13.25;10.00;;;;;12.46;72.08;101146.44;2063067;27;1841413;-79
2024/02/07 02:20:10;;;;;;;;;10.50;8.00;;;;;12.44;72.03;101135.97;2039066;28;1834653;-79
2024/02/07 02:21:27;;;;;;;;;8.33;7.00;;;;;12.46;72.01;101138.53;2023913;27;3468997;-78
2024/02/07 02:22:47;;;;;;;;;12.25;7.25;;;;;12.44;72.10;101130.69;2030985;28;1840895;-79
2024/02/07 02:24:11;;;;;;;;;12.50;8.00;;;;;12.45;72.28;101123.63;2018286;28;2762785;-79
2024/02/07 02:25:56;;;;;;;;;13.50;9.00;;;;;12.44;72.25;101127.19;2039077;28;1833662;-79
2024/02/07 02:27:25;;;;;;;;;12.33;9.67;;;;;12.45;72.12;101123.63;2012802;28;3509629;-79
2024/02/07 02:28:57;;;;;;;;;12.00;8.50;;;;;12.45;72.04;101116.59;2023092;27;2770413;-79
2024/02/07 02:30:21;;;;;;;;;13.50;10.00;;;;;12.45;72.20;101121.00;2022435;27;1839322;-78
2024/02/07 02:31:37;;;;;;;;;12.50;9.67;;;;;12.45;72.04;101121.84;2064982;27;1825317;-79
2024/02/07 02:32:51;;;;;;;;;8.67;8.33;;;;;12.45;72.03;101115.72;2011153;27;2748808;-79
2024/02/07 02:34:05;;;;;;;;;9.33;7.33;;;;;12.45;72.31;101108.69;2034777;27;2740405;-78
2024/02/07 02:35:22;;;;;;;;;9.00;8.33;;;;;12.44;71.95;101120.16;2033965;27;3450309;-79
2024/02/07 02:36:33;;;;;;;;;16.25;12.75;;;;;12.45;72.29;101121.84;2040694;27;1846665;-79
2024/02/07 02:37:45;;;;;;;;;13.50;10.00;;;;;12.44;72.18;101114.00;2024054;28;2782563;-78
2024/02/07 02:38:56;;;;;;;;;9.00;7.50;;;;;12.44;72.23;101108.75;1993897;28;2751818;-79
2024/02/07 02:40:07;;;;;;;;;9.50;7.00;;;;;12.45;72.18;101113.09;2029488;27;2748213;-79
2024/02/07 02:41:20;;;;;;;;;10.33;7.67;;;;;12.46;72.52;101106.91;2058180;27;1832586;-79
2024/02/07 02:42:33;;;;;;;;;10.00;8.50;;;;;12.46;72.31;101114.81;2001690;28;2756522;-79
2024/02/07 02:43:45;;;;;;;;;8.75;8.50;;;;;12.47;72.16;101111.28;2032606;28;1827425;-78
2024/02/07 02:44:56;;;;;;;;;8.00;6.00;;;;;12.45;71.72;101107.81;2026440;27;2740976;-79
2024/02/07 02:46:10;;;;;;;;;10.00;9.00;;;;;12.46;72.45;101109.53;2046870;27;2760718;-78
2024/02/07 02:47:21;;;;;;;;;11.50;9.00;;;;;12.47;72.35;101100.72;2024804;27;2761715;-79
2024/02/07 02:48:32;;;;;;;;;11.25;7.75;;;;;12.46;72.34;101093.72;2065200;27;1811293;-79
2024/02/07 02:49:43;;;;;;;;;14.00;12.00;;;;;12.46;72.35;101096.38;2010559;27;2777343;-79
2024/02/07 02:50:54;;;;;;;;;7.00;7.00;;;;;12.47;72.21;101098.09;2049929;27;2745061;-78
2024/02/07 02:52:06;;;;;;;;;12.20;10.00;;;;;12.46;72.15;101101.63;2064002;27;1819558;-79
2024/02/07 02:53:18;;;;;;;;;9.25;8.50;;;;;12.47;72.01;101092.81;2044722;27;1828459;-79
2024/02/07 02:54:32;;;;;;;;;8.00;8.00;;;;;12.48;72.21;101097.16;2021632;28;2743980;-78
2024/02/07 02:55:43;;;;;;;;;14.00;9.00;;;;;12.47;72.10;101090.19;2018506;28;2771069;-79
2024/02/07 02:56:59;;;;;;;;;12.50;7.50;;;;;12.49;72.07;101094.47;1991398;28;2758582;-79
2024/02/07 02:58:13;;;;;;;;;12.17;9.50;;;;;12.51;72.15;101093.56;2057332;28;1825305;-79
2024/02/07 02:59:25;;;;;;;;;13.00;12.00;;;;;12.49;71.98;101089.19;2015727;28;1837863;-79
2024/02/07 03:00:36;;;;;;;;;10.00;8.50;;;;;12.51;72.10;101086.53;2024893;28;2762756;-79
2024/02/07 03:01:51;;;;;;;;;11.71;9.86;;;;;12.50;72.31;101084.78;2057130;28;1825326;-79
2024/02/07 03:03:02;;;;;;;;;12.00;8.00;;;;;12.51;72.23;101086.53;2024846;28;2754912;-79
2024/02/07 03:04:15;;;;;;;;;8.00;8.00;;;;;12.52;72.15;101082.94;2041207;27;1815957;-79
2024/02/07 03:05:45;;;;;;;;;7.00;6.00;;;;;12.53;72.15;101084.69;2018222;27;1822228;-79
2024/02/07 03:06:59;;;;;;;;;13.00;10.00;;;;;12.52;72.22;101080.31;2001912;27;2797597;-79
2024/02/07 03:08:29;;;;;;;;;15.00;9.00;;;;;12.53;72.39;101079.41;2000282;28;2780492;-79
2024/02/07 03:09:48;;;;;;;;;9.50;7.50;;;;;12.52;72.01;101072.41;1999825;28;2746110;-79
2024/02/07 03:10:59;;;;;;;;;9.00;9.00;;;;;12.53;72.07;101073.25;2018351;28;2748182;-79
2024/02/07 03:12:10;;;;;;;;;10.00;10.00;;;;;12.53;71.95;101068.84;2037686;28;2767997;-79
2024/02/07 03:13:21;;;;;;;;;13.00;8.33;;;;;12.53;72.25;101063.59;2026403;28;3482944;-79
2024/02/07 03:14:32;;;;;;;;;14.33;10.00;;;;;12.54;72.11;101073.22;2043994;27;3511684;-79
2024/02/07 03:15:43;;;;;;;;;9.00;9.00;;;;;12.54;72.00;101065.31;2047767;27;2733586;-79
2024/02/07 03:16:54;;;;;;;;;9.00;7.67;;;;;12.55;72.13;101061.75;2026808;27;3457993;-79
2024/02/07 03:18:06;;;;;;;;;15.00;13.00;;;;;12.57;72.14;101061.69;2023905;28;2797182;-79
2024/02/07 03:19:16;;;;;;;;;10.00;9.00;;;;;12.56;72.17;101052.94;2000709;28;2766923;-78
2024/02/07 03:20:28;;;;;;;;;17.00;11.00;;;;;12.57;72.20;101048.50;2043421;27;2804426;-78
2024/02/07 03:21:39;;;;;;;;;14.00;10.00;;;;;12.58;72.13;101066.06;2000000;28;2791942;-79
2024/02/07 03:22:51;;;;;;;;;13.00;9.00;;;;;12.58;71.76;101051.09;1998089;28;2772147;-79
2024/02/07 03:24:01;;;;;;;;;14.00;10.00;;;;;12.58;72.17;101051.09;1998154;28;2788796;-78
2024/02/07 03:25:16;;;;;;;;;14.00;8.50;;;;;12.58;71.96;101050.22;2029981;28;1828476;-79
2024/02/07 03:26:27;;;;;;;;;9.00;7.00;;;;;12.59;71.93;101044.91;2025728;27;2760689;-79
2024/02/07 03:27:40;;;;;;;;;12.50;8.50;;;;;12.60;72.16;101040.50;2040625;28;2766943;-79
2024/02/07 03:28:53;;;;;;;;;12.00;9.00;;;;;12.60;71.86;101046.63;2024681;27;2747172;-79
2024/02/07 03:30:07;;;;;;;;;13.67;8.83;;;;;12.60;72.00;101051.91;2056010;28;1831581;-79
2024/02/07 03:31:20;;;;;;;;;17.00;10.50;;;;;12.62;72.03;101043.09;2016308;27;1846078;-79
2024/02/07 03:32:31;;;;;;;;;15.50;10.00;;;;;12.61;72.23;101034.31;2015014;28;2798187;-79
2024/02/07 03:33:43;;;;;;;;;10.00;8.67;;;;;12.61;72.22;101039.59;2005467;28;3460610;-79
2024/02/07 03:34:53;;;;;;;;;8.50;8.50;;;;;12.62;71.98;101029.91;2025024;28;2740846;-79
2024/02/07 03:36:06;;;;;;;;;8.00;6.67;;;;;12.63;72.32;101028.97;2059921;27;1826361;-78
2024/02/07 03:37:16;;;;;;;;;11.33;9.00;;;;;12.61;71.87;101023.75;1992514;28;3480464;-79
2024/02/07 03:38:27;;;;;;;;;10.00;10.00;;;;;12.60;71.97;101028.16;2031037;28;2772146;-79
2024/02/07 03:39:38;;;;;;;;;11.00;9.33;;;;;12.63;72.08;101023.69;2033268;27;3478345;-79
2024/02/07 03:40:53;;;;;;;;;14.75;9.75;;;;;12.62;72.15;101019.34;2060654;27;1830525;-79
2024/02/07 03:42:03;;;;;;;;;17.00;12.50;;;;;12.63;71.97;101028.97;2001233;28;2808584;-79
2024/02/07 03:43:15;;;;;;;;;10.00;7.00;;;;;12.63;72.19;101019.28;2011204;28;2761687;-79
2024/02/07 03:44:25;;;;;;;;;16.50;13.00;;;;;12.64;71.95;101020.16;2021527;28;2799209;-78
2024/02/07 03:45:37;;;;;;;;;8.00;8.00;;;;;12.64;72.16;101007.84;2025406;27;1820218;-79
2024/02/07 03:46:48;;;;;;;;;9.00;7.00;;;;;12.64;72.18;101007.84;2023315;28;2737749;-79
2024/02/07 03:48:00;;;;;;;;;10.00;8.33;;;;;12.65;72.00;101003.41;2026844;27;3476277;-79
2024/02/07 03:49:10;;;;;;;;;13.00;10.33;;;;;12.64;71.95;100999.06;2027928;27;3508576;-79
2024/02/07 03:50:25;;;;;;;;;8.00;8.00;;;;;12.65;71.91;100998.13;2036136;28;2733595;-78
2024/02/07 03:51:38;;;;;;;;;11.33;9.00;;;;;12.65;72.10;100995.47;2055558;28;1826898;-79
2024/02/07 03:52:48;;;;;;;;;13.00;9.50;;;;;12.65;71.74;100987.56;2002353;28;2773559;-78
2024/02/07 03:53:59;;;;;;;;;9.00;8.33;;;;;12.63;72.36;100978.88;2058000;28;1833638;-79
2024/02/07 03:55:12;;;;;;;;;11.00;9.00;;;;;12.63;72.04;100985.00;2018461;28;2760702;-79
2024/02/07 03:56:23;;;;;;;;;10.50;8.50;;;;;12.64;71.92;100980.59;2039053;28;1827349;-79
2024/02/07 03:57:35;;;;;;;;;8.25;8.00;;;;;12.65;72.10;100985.81;2039906;28;1837814;-79
2024/02/07 03:58:46;;;;;;;;;13.50;10.50;;;;;12.66;72.15;100978.75;2024251;28;2778848;-79
2024/02/07 03:59:57;;;;;;;;;11.00;10.00;;;;;12.64;71.84;100984.09;2061664;27;1819113;-79
2024/02/07 04:01:12;;;;;;;;;11.00;10.75;;;;;12.65;72.06;100979.66;2015585;28;1839890;-79
2024/02/07 04:02:23;;;;;;;;;8.00;8.00;;;;;12.64;71.90;100970.06;2012351;28;2479990;-79
2024/02/07 04:03:33;;;;;;;;;9.00;8.50;;;;;12.64;72.01;100970.91;2044554;27;2749204;-78
2024/02/07 04:04:44;;;;;;;;;9.33;7.00;;;;;12.64;71.96;100978.81;2046093;27;3456436;-78
2024/02/07 04:05:56;;;;;;;;;9.00;8.50;;;;;12.65;71.85;100977.91;2051253;27;2736756;-78
2024/02/07 04:07:06;;;;;;;;;9.00;8.00;;;;;12.65;72.10;100979.66;2034635;27;2745037;-79
2024/02/07 04:08:17;;;;;;;;;11.00;9.00;;;;;12.65;71.97;100987.56;2053072;27;2754466;-79
2024/02/07 04:09:28;;;;;;;;;9.75;8.75;;;;;12.65;72.04;100979.66;2063369;27;1825280;-80
2024/02/07 04:10:42;;;;;;;;;9.00;8.00;;;;;12.65;71.98;100980.53;2011197;27;2748166;-79
2024/02/07 05:16:18;;;;;;;;;13.50;13.00;;;;;12.56;74.06;100921.09;2001617;28;2787791;-79
2024/02/07 05:17:29;;;;;;;;;13.00;9.00;;;;;12.56;74.01;100920.25;2030258;27;1823162;-79
2024/02/07 05:18:40;;;;;;;;;10.00;9.00;;;;;12.57;74.21;100921.94;2008224;27;2757516;-79
2024/02/07 05:19:51;;;;;;;;;15.33;9.33;;;;;12.57;74.53;100920.16;2008163;27;3515863;-79
2024/02/07 05:21:02;;;;;;;;;11.67;11.67;;;;;12.56;74.24;100915.84;2012142;27;3498179;-79
2024/02/07 05:22:13;;;;;;;;;9.00;7.00;;;;;12.57;74.20;100914.91;2035716;27;2742977;-79
2024/02/07 05:23:24;;;;;;;;;10.00;10.00;;;;;12.56;74.42;100913.19;2052802;27;1846161;-79
2024/02/07 05:24:36;;;;;;;;;11.33;9.00;;;;;12.55;74.49;100919.38;2022194;28;3483517;-79
2024/02/07 05:25:50;;;;;;;;;15.86;9.71;;;;;12.54;74.61;100917.69;2049229;28;1821135;-79
2024/02/07 05:27:02;;;;;;;;;10.00;8.50;;;;;12.54;74.81;100915.03;2024800;28;2769044;-79
2024/02/07 05:28:12;;;;;;;;;13.00;9.00;;;;;12.54;74.28;100906.25;2024025;27;2772117;-79
2024/02/07 05:29:24;;;;;;;;;9.50;7.50;;;;;12.54;74.69;100922.09;2040277;27;2748166;-79
2024/02/07 05:30:34;;;;;;;;;11.00;7.00;;;;;12.53;74.82;100907.16;2015769;28;3489810;-79
2024/02/07 05:31:45;;;;;;;;;10.67;9.67;;;;;12.53;74.81;100894.84;2049041;27;1842506;-79
2024/02/07 05:32:56;;;;;;;;;12.00;9.00;;;;;12.54;74.75;100885.16;2004105;27;2767411;-79
2024/02/07 05:34:08;;;;;;;;;9.80;8.00;;;;;12.54;74.80;100891.31;2057933;27;1819069;-79
2024/02/07 05:35:18;;;;;;;;;10.00;6.67;;;;;12.53;75.01;100884.31;2026043;27;3465873;-79
2024/02/07 05:36:29;;;;;;;;;7.50;7.50;;;;;12.54;74.97;100886.03;2042207;27;2745072;-79
2024/02/07 05:37:40;;;;;;;;;14.00;10.00;;;;;12.54;74.96;100899.22;2051178;27;2785649;-79
2024/02/07 05:38:53;;;;;;;;;13.80;12.20;;;;;12.55;75.11;100900.06;2052800;27;1835756;-79
2024/02/07 05:40:04;;;;;;;;;9.50;9.50;;;;;12.54;75.01;100901.84;2025381;27;2757533;-79
2024/02/07 05:41:15;;;;;;;;;10.00;8.50;;;;;12.55;75.03;100906.19;2032841;27;2760135;-79
2024/02/07 05:42:26;;;;;;;;;10.00;8.00;;;;;12.53;75.44;100897.47;2035444;28;2753389;-79
2024/02/07 05:43:37;;;;;;;;;13.00;8.00;;;;;12.54;75.19;100901.84;2048358;28;1840963;-79
2024/02/07 05:44:48;;;;;;;;;10.00;9.00;;;;;12.52;75.13;100903.66;2001747;28;3497082;-79
2024/02/07 05:45:59;;;;;;;;;10.00;8.00;;;;;12.51;75.14;100899.31;2025640;28;3489815;-79
2024/02/07 05:47:10;;;;;;;;;13.75;12.50;;;;;12.50;75.29;100900.22;2053418;27;1815949;-79
2024/02/07 05:48:21;;;;;;;;;8.50;7.00;;;;;12.50;75.06;100894.97;2033033;27;2757572;-79
2024/02/07 05:49:35;;;;;;;;;12.43;10.71;;;;;12.51;75.39;100901.09;2064796;27;1823275;-79
2024/02/07 05:50:45;;;;;;;;;14.00;12.50;;;;;12.50;75.10;100900.22;2031441;27;2796573;-79
2024/02/07 05:51:59;;;;;;;;;10.00;8.67;;;;;12.49;75.37;100893.25;2026146;27;2746069;-79
2024/02/07 05:53:09;;;;;;;;;13.50;11.00;;;;;12.49;75.34;100898.53;2029607;27;2782531;-79
2024/02/07 05:54:22;;;;;;;;;13.67;9.67;;;;;12.46;75.49;100899.50;2019022;27;3493322;-79
2024/02/07 05:55:33;;;;;;;;;9.25;7.00;;;;;12.48;75.40;100892.41;2040496;28;1828374;-79
2024/02/07 05:56:44;;;;;;;;;13.50;13.50;;;;;12.48;75.39;100895.03;2023623;28;2798183;-79
2024/02/07 05:57:55;;;;;;;;;11.50;8.50;;;;;12.47;75.65;100888.03;2056476;27;1815004;-79
2024/02/07 05:59:05;;;;;;;;;7.33;7.33;;;;;12.48;75.60;100894.16;2003081;28;3457528;-79
2024/02/07 06:00:16;;;;;;;;;10.00;10.00;;;;;12.47;75.43;100889.81;2050687;27;2765257;-79
2024/02/07 06:01:27;;;;;;;;;12.00;10.00;;;;;12.47;75.86;100876.66;2031479;27;2782523;-79
2024/02/07 06:02:39;;;;;;;;;14.60;11.60;;;;;12.48;75.78;100886.25;2052767;28;1821717;-79
2024/02/07 06:03:53;;;;;;;;;12.67;9.33;;;;;12.48;76.07;100887.13;2060784;27;1819057;-79
2024/02/07 06:05:06;;;;;;;;;12.33;10.67;;;;;12.48;76.07;100887.13;2034450;27;1819060;-79
2024/02/07 06:06:19;;;;;;;;;13.00;9.00;;;;;12.49;76.07;100882.72;2002068;28;2766931;-79
2024/02/07 06:07:31;;;;;;;;;10.25;6.75;;;;;12.49;75.87;100890.63;2039924;27;1831554;-79
2024/02/07 06:08:42;;;;;;;;;11.00;11.00;;;;;12.49;76.03;100882.72;2023235;27;2778447;-79
2024/02/07 06:09:53;;;;;;;;;13.00;12.00;;;;;12.49;75.99;100885.34;2013214;28;2791989;-79
2024/02/07 06:11:05;;;;;;;;;11.50;9.00;;;;;12.49;75.73;100887.97;2017550;27;2753877;-80
2024/02/07 06:12:17;;;;;;;;;10.00;9.50;;;;;12.49;76.14;100882.72;2045926;27;1824355;-79
2024/02/07 06:13:27;;;;;;;;;9.00;9.00;;;;;12.49;76.12;100877.44;2029997;27;2745512;-79
2024/02/07 06:14:38;;;;;;;;;12.25;10.50;;;;;12.50;76.36;100887.06;2062621;27;1819190;-79
2024/02/07 06:15:51;;;;;;;;;10.67;8.33;;;;;12.48;76.49;100883.63;2043337;27;1814929;-79
2024/02/07 06:17:02;;;;;;;;;12.00;9.50;;;;;12.48;76.39;100881.84;1997367;28;2778445;-79
2024/02/07 06:18:13;;;;;;;;;13.50;13.50;;;;;12.49;76.45;100893.25;2013586;27;2786742;-79
2024/02/07 06:19:24;;;;;;;;;14.50;11.50;;;;;12.49;76.36;100885.34;2016638;27;2778412;-79
2024/02/07 06:20:35;;;;;;;;;10.50;10.00;;;;;12.48;76.37;100873.94;2042366;27;2785665;-79
2024/02/07 06:21:46;;;;;;;;;13.50;12.00;;;;;12.48;76.47;100886.25;2044012;27;2786733;-79
2024/02/07 06:22:57;;;;;;;;;13.00;10.00;;;;;12.46;76.62;100878.41;2043355;27;2776265;-79
2024/02/07 06:24:07;;;;;;;;;10.00;8.00;;;;;12.46;76.77;100878.41;2036473;28;2754428;-79
2024/02/07 06:25:18;;;;;;;;;10.50;7.00;;;;;12.47;76.74;100874.00;2040479;28;2758597;-79
2024/02/07 06:26:29;;;;;;;;;11.50;10.00;;;;;12.46;76.78;100877.56;2038292;27;2777867;-79
2024/02/07 06:27:40;;;;;;;;;9.50;9.50;;;;;12.47;76.80;100871.38;2049269;27;2754454;-79
2024/02/07 06:28:51;;;;;;;;;7.67;7.67;;;;;12.46;77.13;100867.88;2046006;27;2748249;-79